createdAt,value
2022-08-17T00:01:27.617Z,24.52
2022-08-17T00:06:34.701Z,24.54
2022-08-17T00:11:42.159Z,24.57
2022-08-17T00:16:56.064Z,24.61
2022-08-17T00:22:31.670Z,24.63
2022-08-17T00:27:04.366Z,24.59
2022-08-17T00:33:14.415Z,24.51
2022-08-17T00:37:17.313Z,24.43
2022-08-17T00:42:26.438Z,24.34
2022-08-17T00:47:31.578Z,24.23
2022-08-17T00:52:39.128Z,24.10
2022-08-17T00:57:47.193Z,23.99
2022-08-17T01:02:53.121Z,23.85
2022-08-17T01:07:59.910Z,23.71
2022-08-17T01:13:07.019Z,23.59
2022-08-17T01:18:14.060Z,23.49
2022-08-17T01:23:21.738Z,23.45
2022-08-17T01:28:52.601Z,23.53
2022-08-17T01:33:37.004Z,23.62
2022-08-17T01:38:42.644Z,23.73
2022-08-17T01:43:49.509Z,23.82
2022-08-17T01:48:56.630Z,23.79
2022-08-17T01:54:04.645Z,23.72
2022-08-17T01:59:12.245Z,23.65
2022-08-17T02:04:17.815Z,23.60
2022-08-17T02:09:25.545Z,23.51
2022-08-17T02:14:33.526Z,23.40
2022-08-17T02:19:39.102Z,23.29
2022-08-17T02:25:00.131Z,23.19
2022-08-17T02:29:53.367Z,23.13
2022-08-17T02:35:01.299Z,23.16
2022-08-17T02:40:08.231Z,23.21
2022-08-17T02:45:15.057Z,23.21
2022-08-17T02:50:21.704Z,23.22
2022-08-17T02:55:30.390Z,23.20
2022-08-17T03:00:36.012Z,23.21
2022-08-17T03:05:43.191Z,23.25
2022-08-17T03:10:50.381Z,23.30
2022-08-17T03:15:57.507Z,23.33
2022-08-17T03:21:04.143Z,23.33
2022-08-17T03:26:15.273Z,23.29
2022-08-17T03:31:18.305Z,23.24
2022-08-17T03:36:25.558Z,23.19
2022-08-17T03:41:32.994Z,23.20
2022-08-17T03:46:39.687Z,23.26
2022-08-17T03:51:47.093Z,23.31
2022-08-17T03:56:53.891Z,23.37
2022-08-17T04:02:02.337Z,23.40
2022-08-17T04:07:08.087Z,23.41
2022-08-17T04:12:15.539Z,23.44
2022-08-17T04:17:22.675Z,23.50
2022-08-17T04:22:33.099Z,23.60
2022-08-17T04:27:36.865Z,23.74
2022-08-17T04:33:00.553Z,23.98
2022-08-17T04:43:00.115Z,24.93
2022-08-17T04:48:06.957Z,25.65
2022-08-17T04:53:12.024Z,26.42
2022-08-17T04:58:20.531Z,27.17
2022-08-17T05:03:26.250Z,27.91
2022-08-17T05:08:33.605Z,28.62
2022-08-17T05:13:40.398Z,29.41
2022-08-17T05:18:47.661Z,30.09
2022-08-17T05:23:56.889Z,30.73
2022-08-17T05:29:02.844Z,31.37
2022-08-17T05:34:09.237Z,31.99
2022-08-17T05:39:17.203Z,32.47
2022-08-17T05:44:24.397Z,32.98
2022-08-17T05:49:31.006Z,33.71
2022-08-17T05:54:37.501Z,34.53
2022-08-17T05:59:44.943Z,35.12
2022-08-17T06:04:51.707Z,35.55
2022-08-17T06:09:59.047Z,36.01
2022-08-17T06:15:05.865Z,36.51
2022-08-17T06:20:13.306Z,36.99
2022-08-17T06:25:20.255Z,37.52
2022-08-17T06:30:27.734Z,38.16
2022-08-17T06:35:34.839Z,38.80
2022-08-17T06:40:41.599Z,39.42
2022-08-17T06:45:49.255Z,39.89
2022-08-17T06:50:55.844Z,40.54
2022-08-17T06:56:03.364Z,41.35
2022-08-17T07:01:10.244Z,42.20
2022-08-17T07:06:17.719Z,42.88
2022-08-17T07:11:24.503Z,43.48
2022-08-17T07:16:32.068Z,44.03
2022-08-17T07:21:38.989Z,44.52
2022-08-17T07:26:46.406Z,44.90
2022-08-17T07:31:53.227Z,45.04
2022-08-17T07:37:00.541Z,45.57
2022-08-17T07:42:08.019Z,45.91
2022-08-17T07:47:14.817Z,46.14
2022-08-17T07:52:51.049Z,46.42
2022-08-17T07:57:30.084Z,46.65
2022-08-17T08:02:36.253Z,46.97
2022-08-17T08:07:43.665Z,47.29
2022-08-17T08:12:53.678Z,47.45
2022-08-17T08:17:58.000Z,47.81
2022-08-17T08:23:04.918Z,48.09
2022-08-17T08:28:12.265Z,48.14
2022-08-17T08:33:19.048Z,48.18
2022-08-17T08:38:26.337Z,48.81
2022-08-17T08:43:33.633Z,49.40
2022-08-17T08:48:53.000Z,49.55
2022-08-17T08:53:47.851Z,49.88
2022-08-17T08:58:55.184Z,50.36
2022-08-17T09:04:18.313Z,50.65
2022-08-17T09:09:09.363Z,50.78
2022-08-17T09:14:21.207Z,50.97
2022-08-17T09:19:23.639Z,51.32
2022-08-17T09:24:31.289Z,51.40
2022-08-17T09:29:38.225Z,51.42
2022-08-17T09:34:47.017Z,51.21
2022-08-17T09:39:52.600Z,51.06
2022-08-17T09:44:59.882Z,49.80
2022-08-17T09:50:06.756Z,48.29
2022-08-17T09:55:13.942Z,47.77
2022-08-17T10:00:21.396Z,47.76
2022-08-17T10:05:28.218Z,47.83
2022-08-17T10:10:35.600Z,48.23
2022-08-17T10:15:42.909Z,49.01
2022-08-17T10:20:50.448Z,49.41
2022-08-17T10:25:57.256Z,49.19
2022-08-17T10:31:33.775Z,48.96
2022-08-17T10:36:11.507Z,48.89
2022-08-17T10:41:18.813Z,49.68
2022-08-17T10:46:31.183Z,50.71
2022-08-17T10:51:32.954Z,51.57
2022-08-17T10:56:40.182Z,52.05
2022-08-17T11:01:47.470Z,51.92
2022-08-17T11:06:54.333Z,52.14
2022-08-17T11:12:01.627Z,52.22
2022-08-17T11:17:08.903Z,52.17
2022-08-17T11:22:16.381Z,52.10
2022-08-17T11:27:23.807Z,52.06
2022-08-17T11:32:30.489Z,52.01
2022-08-17T11:37:37.724Z,51.61
2022-08-17T11:42:44.643Z,51.39
2022-08-17T11:48:16.151Z,51.40
2022-08-17T11:52:59.607Z,50.85
2022-08-17T11:58:06.415Z,50.00
2022-08-17T12:03:13.261Z,49.55
2022-08-17T12:08:20.718Z,50.37
2022-08-17T12:13:35.172Z,51.55
2022-08-17T12:18:35.007Z,52.55
2022-08-17T12:23:44.256Z,52.91
2022-08-17T12:28:49.907Z,52.20
2022-08-17T12:33:57.773Z,51.54
2022-08-17T12:39:13.105Z,50.56
2022-08-17T12:44:11.750Z,49.81
2022-08-17T12:49:18.235Z,49.43
2022-08-17T12:54:26.635Z,48.64
2022-08-17T12:59:32.602Z,47.11
2022-08-17T13:04:39.587Z,46.32
2022-08-17T13:09:48.167Z,46.67
2022-08-17T13:14:54.077Z,46.89
2022-08-17T13:20:01.086Z,46.55
2022-08-17T13:25:08.168Z,45.92
2022-08-17T13:30:15.229Z,45.15
2022-08-17T13:35:29.766Z,44.49
2022-08-17T13:40:29.633Z,44.14
2022-08-17T13:45:39.334Z,44.20
2022-08-17T13:50:44.172Z,44.06
2022-08-17T13:55:51.451Z,43.92
2022-08-17T14:00:58.105Z,43.79
2022-08-17T14:06:05.621Z,43.68
2022-08-17T14:11:12.442Z,43.71
2022-08-17T14:16:19.606Z,43.69
2022-08-17T14:21:26.872Z,43.54
2022-08-17T14:26:34.202Z,43.16
2022-08-17T14:31:41.608Z,42.87
2022-08-17T14:36:48.819Z,42.75
2022-08-17T14:41:55.912Z,42.78
2022-08-17T14:47:02.526Z,42.81
2022-08-17T14:52:09.779Z,42.41
2022-08-17T14:57:33.764Z,41.81
2022-08-17T15:02:27.555Z,41.51
2022-08-17T15:07:31.710Z,41.46
2022-08-17T15:12:40.039Z,41.37
2022-08-17T15:17:46.847Z,41.31
2022-08-17T15:22:53.016Z,41.12
2022-08-17T15:28:00.253Z,40.99
2022-08-17T15:33:06.962Z,40.83
2022-08-17T15:38:14.470Z,40.71
2022-08-17T15:43:27.067Z,40.68
2022-08-17T15:48:28.515Z,40.58
2022-08-17T15:53:35.814Z,40.49
2022-08-17T15:58:43.120Z,40.30
2022-08-17T16:04:05.011Z,39.99
2022-08-17T16:08:57.379Z,39.64
2022-08-17T16:14:04.395Z,39.26
2022-08-17T16:19:11.634Z,38.89
2022-08-17T16:24:18.625Z,38.61
2022-08-17T16:29:26.007Z,38.45
2022-08-17T16:34:33.061Z,38.30
2022-08-17T16:39:39.850Z,38.19
2022-08-17T16:44:47.171Z,38.09
2022-08-17T16:49:54.470Z,38.00
2022-08-17T16:55:01.945Z,37.95
2022-08-17T17:00:09.004Z,37.85
2022-08-17T17:05:15.961Z,37.64
2022-08-17T17:10:22.869Z,37.35
2022-08-17T17:15:30.317Z,37.08
2022-08-17T17:20:37.230Z,36.83
2022-08-17T17:25:44.421Z,36.61
2022-08-17T17:30:51.214Z,36.39
2022-08-17T17:35:58.494Z,36.16
2022-08-17T17:41:05.787Z,35.90
2022-08-17T17:46:27.140Z,35.62
2022-08-17T17:51:55.002Z,35.35
2022-08-17T17:56:44.072Z,35.10
2022-08-17T18:01:34.625Z,34.87
2022-08-17T18:06:41.237Z,34.65
2022-08-17T18:11:51.378Z,34.44
2022-08-17T18:16:56.459Z,34.24
2022-08-17T18:22:02.875Z,34.06
2022-08-17T18:27:10.325Z,33.88
2022-08-17T18:32:17.261Z,33.69
2022-08-17T18:37:24.029Z,33.51
2022-08-17T18:42:31.326Z,33.35
2022-08-17T18:47:38.737Z,33.20
2022-08-17T18:52:45.826Z,33.04
2022-08-17T18:57:52.829Z,32.87
2022-08-17T19:03:00.138Z,32.68
2022-08-17T19:08:07.309Z,32.50
2022-08-17T19:13:14.127Z,32.33
2022-08-17T19:18:21.467Z,32.17
2022-08-17T19:23:28.355Z,32.02
2022-08-17T19:28:36.111Z,31.87
2022-08-17T19:33:42.951Z,31.74
2022-08-17T19:38:49.719Z,31.61
2022-08-17T19:43:57.019Z,31.49
2022-08-17T19:49:04.504Z,31.37
2022-08-17T19:54:11.325Z,31.24
2022-08-17T19:59:18.602Z,31.13
2022-08-17T20:04:25.448Z,31.03
2022-08-17T20:09:33.721Z,30.92
2022-08-17T20:14:40.143Z,30.82
2022-08-17T20:19:48.015Z,30.71
2022-08-17T20:24:53.874Z,30.58
2022-08-17T20:30:01.205Z,30.44
2022-08-17T20:35:08.817Z,30.29
2022-08-17T20:40:15.777Z,30.16
2022-08-17T20:45:22.483Z,30.03
2022-08-17T20:50:29.888Z,29.91
2022-08-17T20:55:51.819Z,29.80
2022-08-17T21:00:44.105Z,29.69
2022-08-17T21:05:52.333Z,29.60
2022-08-17T21:10:58.210Z,29.51
2022-08-17T21:16:05.534Z,29.41
2022-08-17T21:21:15.461Z,29.33
2022-08-17T21:26:19.569Z,29.25
2022-08-17T21:31:26.861Z,29.19
2022-08-17T21:36:33.670Z,29.13
2022-08-17T21:41:40.936Z,29.07
2022-08-17T21:46:50.320Z,29.02
2022-08-17T21:51:56.280Z,28.96
2022-08-17T21:57:03.976Z,28.90
2022-08-17T22:02:10.979Z,28.86
2022-08-17T22:07:17.312Z,28.81
2022-08-17T22:12:24.658Z,28.75
2022-08-17T22:17:31.571Z,28.70
2022-08-17T22:22:38.470Z,28.64
2022-08-17T22:27:46.305Z,28.58
2022-08-17T22:32:52.462Z,28.52
2022-08-17T22:38:01.687Z,28.44
2022-08-17T22:43:06.646Z,28.37
2022-08-17T22:48:13.624Z,28.31
2022-08-17T22:53:22.930Z,28.24
2022-08-17T22:58:28.152Z,28.18
2022-08-17T23:03:35.215Z,28.12
2022-08-17T23:08:42.971Z,28.08
2022-08-17T23:13:49.792Z,28.06
2022-08-17T23:18:56.349Z,28.03
2022-08-17T23:24:03.724Z,28.00
2022-08-17T23:29:10.576Z,27.97
2022-08-17T23:34:18.149Z,27.93
2022-08-17T23:39:27.595Z,27.88
2022-08-17T23:44:32.326Z,27.83
2022-08-17T23:49:40.842Z,27.78
2022-08-17T23:54:47.800Z,27.72
2022-08-17T23:59:53.340Z,27.67
